createdAt,value
2019-05-20T00:01:44.984Z,24.20
2019-05-20T00:04:13.869Z,23.63
2019-05-20T00:06:43.141Z,22.37
2019-05-20T00:09:11.913Z,21.93
2019-05-20T00:11:40.728Z,24.60
2019-05-20T00:14:09.499Z,21.83
2019-05-20T00:16:38.476Z,24.87
2019-05-20T00:19:07.360Z,24.93
2019-05-20T00:21:36.204Z,21.97
2019-05-20T00:24:04.988Z,24.60
2019-05-20T00:26:34.009Z,22.47
2019-05-20T00:29:02.876Z,23.57
2019-05-20T00:31:31.775Z,22.43
2019-05-20T00:34:00.582Z,22.50
2019-05-20T00:36:29.651Z,23.03
2019-05-20T00:39:16.393Z,22.20
2019-05-20T00:41:45.277Z,22.20
2019-05-20T00:44:14.035Z,20.50
2019-05-20T00:46:42.930Z,22.27
2019-05-20T00:49:11.711Z,22.90
2019-05-20T00:51:41.352Z,22.57
2019-05-20T00:54:10.523Z,20.90
2019-05-20T00:56:39.598Z,23.10
2019-05-20T00:59:08.516Z,22.53
2019-05-20T01:01:37.368Z,20.50
2019-05-20T01:04:06.279Z,23.93
2019-05-20T01:06:35.272Z,22.27
2019-05-20T01:09:06.619Z,23.03
2019-05-20T01:11:35.440Z,21.63
2019-05-20T01:14:04.826Z,21.20
2019-05-20T01:16:33.975Z,20.67
2019-05-20T01:19:03.418Z,22.00
2019-05-20T01:21:32.231Z,22.20
2019-05-20T01:24:01.070Z,25.00
2019-05-20T01:26:29.875Z,25.10
2019-05-20T01:28:58.676Z,25.30
2019-05-20T01:31:27.469Z,25.33
2019-05-20T01:33:56.254Z,24.83
2019-05-20T01:36:25.239Z,25.03
2019-05-20T01:38:54.097Z,23.77
2019-05-20T01:41:22.923Z,24.43
2019-05-20T01:43:51.788Z,24.77
2019-05-20T01:46:20.813Z,23.57
2019-05-20T01:48:49.608Z,25.57
2019-05-20T01:51:18.410Z,24.15
2019-05-20T01:53:47.190Z,23.27
2019-05-20T01:56:16.150Z,27.80
2019-05-20T01:58:44.967Z,24.80
2019-05-20T02:01:13.833Z,25.70
2019-05-20T02:03:42.676Z,29.20
2019-05-20T02:06:11.487Z,26.10
2019-05-20T02:08:40.395Z,25.23
2019-05-20T02:11:09.197Z,28.07
2019-05-20T02:13:57.048Z,30.73
2019-05-20T02:16:26.770Z,29.40
2019-05-20T02:18:55.621Z,29.90
2019-05-20T02:21:24.432Z,27.13
2019-05-20T02:23:53.327Z,29.23
2019-05-20T02:26:22.498Z,31.93
2019-05-20T02:28:51.354Z,28.83
2019-05-20T02:31:20.216Z,31.60
2019-05-20T02:33:52.189Z,32.53
2019-05-20T02:36:19.704Z,31.70
2019-05-20T02:38:48.489Z,33.23
2019-05-20T02:41:17.347Z,30.80
2019-05-20T02:43:46.710Z,28.63
2019-05-20T02:46:15.646Z,30.00
2019-05-20T02:48:44.565Z,32.30
2019-05-20T02:51:14.067Z,32.77
2019-05-20T02:53:42.859Z,33.53
2019-05-20T02:56:11.823Z,30.73
2019-05-20T02:58:40.680Z,29.37
2019-05-20T03:01:09.488Z,31.97
2019-05-20T03:03:38.282Z,29.57
2019-05-20T03:06:07.245Z,33.57
2019-05-20T03:08:36.032Z,32.37
2019-05-20T03:11:04.905Z,33.43
2019-05-20T03:13:33.681Z,35.57
2019-05-20T03:16:02.567Z,35.67
2019-05-20T03:18:31.389Z,34.87
2019-05-20T03:21:00.239Z,33.57
2019-05-20T03:23:29.301Z,34.60
2019-05-20T03:25:58.384Z,34.40
2019-05-20T03:28:27.327Z,32.67
2019-05-20T03:30:56.125Z,33.87
2019-05-20T03:33:24.969Z,33.67
2019-05-20T03:35:53.978Z,34.40
2019-05-20T03:38:22.775Z,35.80
2019-05-20T03:40:53.107Z,34.00
2019-05-20T03:43:21.969Z,33.87
2019-05-20T03:45:50.869Z,33.07
2019-05-20T03:48:19.716Z,30.37
2019-05-20T03:50:48.527Z,32.23
2019-05-20T03:53:17.380Z,31.33
2019-05-20T03:55:46.223Z,31.90
2019-05-20T03:58:15.068Z,34.90
2019-05-20T04:00:45.691Z,34.53
2019-05-20T04:03:15.434Z,34.10
2019-05-20T04:05:44.725Z,34.80
2019-05-20T04:08:14.006Z,36.13
2019-05-20T04:10:43.112Z,33.83
2019-05-20T04:13:12.096Z,35.87
2019-05-20T04:15:41.402Z,32.03
2019-05-20T04:18:10.349Z,33.67
2019-05-20T04:20:39.166Z,33.03
2019-05-20T04:23:08.122Z,37.60
2019-05-20T04:25:37.023Z,34.00
2019-05-20T04:28:06.045Z,32.27
2019-05-20T04:30:34.908Z,36.33
2019-05-20T04:33:04.262Z,32.10
2019-05-20T04:35:33.075Z,33.47
2019-05-20T04:38:02.066Z,33.40
2019-05-20T04:40:30.872Z,33.88
2019-05-20T04:42:59.751Z,31.40
2019-05-20T04:45:28.541Z,32.97
2019-05-20T04:47:57.417Z,31.50
2019-05-20T04:50:26.202Z,33.40
2019-05-20T04:52:54.969Z,29.17
2019-05-20T04:55:23.847Z,29.30
2019-05-20T04:57:52.767Z,30.50
2019-05-20T05:00:50.762Z,28.60
2019-05-20T05:03:19.558Z,30.40
2019-05-20T05:05:49.335Z,30.23
2019-05-20T05:08:18.367Z,26.43
2019-05-20T05:10:47.350Z,26.93
2019-05-20T05:13:16.389Z,25.57
2019-05-20T05:15:45.726Z,25.50
2019-05-20T05:18:14.626Z,21.17
2019-05-20T05:20:43.568Z,19.67
2019-05-20T05:23:12.533Z,18.30
2019-05-20T05:25:41.368Z,19.60
2019-05-20T05:28:10.497Z,26.33
2019-05-20T05:30:40.355Z,23.03
2019-05-20T05:33:09.217Z,24.40
2019-05-20T05:35:52.340Z,23.73
2019-05-20T05:38:08.912Z,25.20
2019-05-20T05:40:37.717Z,24.37
2019-05-20T05:43:06.528Z,22.53
2019-05-20T05:45:36.158Z,21.63
2019-05-20T05:48:05.482Z,23.20
2019-05-20T05:50:34.312Z,23.20
2019-05-20T05:53:03.105Z,24.40
2019-05-20T05:55:32.069Z,23.90
2019-05-20T05:58:00.956Z,25.37
2019-05-20T06:00:29.853Z,21.33
2019-05-20T06:02:58.651Z,22.10
2019-05-20T06:05:31.328Z,19.17
2019-05-20T06:07:58.104Z,20.73
2019-05-20T06:10:26.928Z,18.00
2019-05-20T06:12:55.735Z,16.97
2019-05-20T06:15:24.899Z,19.83
2019-05-20T06:17:53.885Z,21.50
2019-05-20T06:20:23.749Z,18.33
2019-05-20T06:22:52.599Z,16.80
2019-05-20T06:25:21.869Z,20.60
2019-05-20T06:27:50.683Z,20.53
2019-05-20T06:30:22.733Z,19.77
2019-05-20T06:32:51.510Z,20.07
2019-05-20T06:35:20.298Z,19.53
2019-05-20T06:37:53.094Z,18.70
2019-05-20T06:40:21.927Z,20.17
2019-05-20T06:42:50.831Z,20.93
2019-05-20T06:45:19.786Z,17.05
2019-05-20T06:47:48.804Z,19.63
2019-05-20T06:50:17.754Z,17.70
2019-05-20T06:52:46.541Z,17.10
2019-05-20T06:55:15.919Z,18.90
2019-05-20T06:57:44.734Z,16.37
2019-05-20T07:00:15.659Z,15.67
2019-05-20T07:02:44.434Z,13.37
2019-05-20T07:05:13.552Z,14.30
2019-05-20T07:07:42.534Z,15.57
2019-05-20T07:10:11.587Z,15.60
2019-05-20T07:12:41.752Z,14.93
2019-05-20T07:15:11.168Z,15.43
2019-05-20T07:17:40.177Z,15.17
2019-05-20T07:20:09.311Z,14.17
2019-05-20T07:22:54.538Z,13.80
2019-05-20T07:25:09.153Z,13.13
2019-05-20T07:27:37.994Z,15.90
2019-05-20T07:30:07.315Z,16.20
2019-05-20T07:32:36.268Z,15.50
2019-05-20T07:35:07.852Z,15.27
2019-05-20T07:37:36.736Z,17.40
2019-05-20T07:40:06.212Z,15.47
2019-05-20T07:42:35.059Z,17.23
2019-05-20T07:45:04.421Z,17.27
2019-05-20T07:47:33.620Z,17.43
2019-05-20T07:50:03.067Z,15.50
2019-05-20T07:52:32.539Z,19.07
2019-05-20T07:55:02.184Z,17.57
2019-05-20T07:57:34.033Z,17.60
2019-05-20T08:00:04.426Z,18.77
2019-05-20T08:02:33.481Z,17.70
2019-05-20T08:05:04.605Z,21.80
2019-05-20T08:07:50.300Z,18.63
2019-05-20T08:10:03.721Z,21.27
2019-05-20T08:12:32.558Z,23.40
2019-05-20T08:15:01.461Z,24.57
2019-05-20T08:17:30.498Z,28.10
2019-05-20T08:19:59.337Z,24.73
2019-05-20T08:22:28.338Z,24.90
2019-05-20T08:24:57.248Z,23.03
2019-05-20T08:27:26.410Z,22.70
2019-05-20T08:29:55.199Z,21.33
2019-05-20T08:32:24.086Z,23.77
2019-05-20T08:34:52.917Z,22.93
2019-05-20T08:37:21.688Z,22.90
2019-05-20T08:39:50.539Z,23.60
2019-05-20T08:42:19.410Z,22.57
2019-05-20T08:44:48.249Z,23.00
2019-05-20T08:47:17.343Z,24.57
2019-05-20T08:49:46.473Z,22.93
2019-05-20T08:52:15.611Z,19.57
2019-05-20T08:54:44.424Z,22.00
2019-05-20T08:57:13.388Z,21.53
2019-05-20T08:59:42.195Z,25.83
2019-05-20T09:02:11.092Z,22.13
2019-05-20T09:04:39.913Z,23.07
2019-05-20T09:07:09.404Z,24.93
2019-05-20T09:09:38.266Z,24.80
2019-05-20T09:12:07.332Z,24.03
2019-05-20T09:14:36.112Z,21.93
2019-05-20T09:17:05.111Z,22.73
2019-05-20T09:19:33.847Z,25.13
2019-05-20T09:22:02.719Z,25.40
2019-05-20T09:24:31.564Z,25.50
2019-05-20T09:27:00.764Z,22.47
2019-05-20T09:29:29.556Z,25.80
2019-05-20T09:31:58.548Z,27.60
2019-05-20T09:34:27.449Z,21.30
2019-05-20T09:36:56.428Z,20.60
2019-05-20T09:39:25.331Z,20.43
2019-05-20T09:41:54.227Z,21.80
2019-05-20T09:44:23.073Z,22.17
2019-05-20T09:46:52.120Z,22.20
2019-05-20T09:49:20.958Z,22.83
2019-05-20T09:51:49.816Z,22.70
2019-05-20T09:54:18.667Z,22.73
2019-05-20T09:56:47.555Z,21.47
2019-05-20T09:59:16.565Z,22.27
2019-05-20T10:01:45.550Z,19.07
2019-05-20T10:04:15.927Z,24.37
2019-05-20T10:06:45.316Z,23.63
2019-05-20T10:09:14.128Z,21.57
2019-05-20T10:11:43.501Z,20.67
2019-05-20T10:14:12.474Z,20.73
2019-05-20T10:16:41.672Z,22.33
2019-05-20T10:19:10.583Z,22.30
2019-05-20T10:21:39.392Z,22.00
2019-05-20T10:24:08.186Z,24.17
2019-05-20T10:26:39.767Z,22.07
2019-05-20T10:29:08.796Z,25.17
2019-05-20T10:31:39.092Z,22.67
2019-05-20T10:34:07.963Z,22.10
2019-05-20T10:36:37.048Z,21.70
2019-05-20T10:39:08.858Z,23.20
2019-05-20T10:41:38.048Z,20.03
2019-05-20T10:44:07.252Z,21.70
2019-05-20T10:46:36.954Z,25.03
2019-05-20T10:49:05.732Z,21.70
2019-05-20T10:51:34.617Z,22.37
2019-05-20T10:54:03.415Z,22.17
2019-05-20T10:56:32.411Z,26.43
2019-05-20T10:59:01.214Z,24.37
2019-05-20T11:01:29.965Z,25.87
2019-05-20T11:03:58.871Z,25.23
2019-05-20T11:06:27.743Z,28.03
2019-05-20T11:08:56.557Z,25.77
2019-05-20T11:11:28.864Z,23.03
2019-05-20T11:13:58.209Z,26.03
2019-05-20T11:16:27.463Z,23.17
2019-05-20T11:18:56.706Z,25.87
2019-05-20T11:21:25.563Z,21.53
2019-05-20T11:23:54.383Z,21.73
2019-05-20T11:26:26.062Z,24.23
2019-05-20T11:28:54.850Z,26.73
2019-05-20T11:31:24.123Z,27.13
2019-05-20T11:33:52.925Z,28.53
2019-05-20T11:36:21.843Z,28.90
2019-05-20T11:38:50.692Z,26.57
2019-05-20T11:41:19.562Z,27.47
2019-05-20T11:43:48.362Z,28.50
2019-05-20T11:46:19.152Z,24.90
2019-05-20T11:48:48.854Z,29.67
2019-05-20T11:51:18.020Z,29.33
2019-05-20T11:53:46.908Z,26.43
2019-05-20T11:56:15.789Z,28.33
2019-05-20T11:58:44.583Z,25.33
2019-05-20T12:01:13.365Z,22.40
2019-05-20T12:03:42.277Z,24.00
2019-05-20T12:06:11.152Z,23.13
2019-05-20T12:08:40.235Z,24.50
2019-05-20T12:11:10.424Z,22.37
2019-05-20T12:13:40.706Z,21.13
2019-05-20T12:16:10.003Z,24.57
2019-05-20T12:18:39.057Z,22.90
2019-05-20T12:21:07.831Z,21.43
2019-05-20T12:23:36.641Z,18.73
2019-05-20T12:26:05.436Z,22.17
2019-05-20T12:28:34.276Z,21.97
2019-05-20T12:31:03.312Z,22.57
2019-05-20T12:33:32.093Z,17.90
2019-05-20T12:36:01.076Z,20.93
2019-05-20T12:38:29.885Z,20.23
2019-05-20T12:40:58.695Z,19.33
2019-05-20T12:43:27.485Z,17.97
2019-05-20T12:45:56.732Z,20.30
2019-05-20T12:48:25.701Z,19.57
2019-05-20T12:50:54.513Z,19.33
2019-05-20T12:53:23.286Z,18.87
2019-05-20T12:55:52.048Z,16.90
2019-05-20T12:58:20.835Z,16.43
2019-05-20T13:00:49.624Z,20.67
2019-05-20T13:03:18.680Z,18.90
2019-05-20T13:05:47.873Z,20.27
2019-05-20T13:08:17.515Z,18.70
2019-05-20T13:10:49.591Z,19.50
2019-05-20T13:13:18.396Z,21.00
2019-05-20T13:15:47.219Z,26.83
2019-05-20T13:18:16.024Z,21.30
2019-05-20T13:20:44.859Z,21.63
2019-05-20T13:23:20.175Z,20.20
2019-05-20T13:25:49.207Z,19.43
2019-05-20T13:28:19.016Z,22.07
2019-05-20T13:30:52.025Z,23.13
2019-05-20T13:33:24.023Z,21.80
2019-05-20T13:35:56.504Z,19.30
2019-05-20T13:38:25.421Z,17.03
2019-05-20T13:40:54.285Z,19.10
2019-05-20T13:43:23.156Z,18.73
2019-05-20T13:45:52.130Z,19.30
2019-05-20T13:48:20.968Z,20.67
2019-05-20T13:50:49.791Z,19.87
2019-05-20T13:53:18.704Z,22.53
2019-05-20T13:55:47.570Z,20.77
2019-05-20T13:58:16.869Z,21.17
2019-05-20T14:00:46.223Z,21.10
2019-05-20T14:03:15.415Z,22.47
2019-05-20T14:05:46.334Z,22.90
2019-05-20T14:08:15.263Z,21.23
2019-05-20T14:10:44.320Z,22.33
2019-05-20T14:13:13.127Z,22.73
2019-05-20T14:15:42.239Z,21.90
2019-05-20T14:18:11.171Z,23.47
2019-05-20T14:20:41.532Z,25.53
2019-05-20T14:23:10.387Z,22.60
2019-05-20T14:25:39.179Z,23.07
2019-05-20T14:28:08.232Z,23.47
2019-05-20T14:30:37.083Z,24.50
2019-05-20T14:33:05.974Z,23.10
2019-05-20T14:35:34.741Z,24.47
2019-05-20T14:38:03.730Z,25.73
2019-05-20T14:40:32.577Z,24.75
2019-05-20T14:43:01.514Z,24.60
2019-05-20T14:45:30.313Z,23.73
2019-05-20T14:47:59.299Z,24.93
2019-05-20T14:50:28.171Z,25.20
2019-05-20T14:52:57.080Z,27.80
2019-05-20T14:55:25.989Z,24.97
2019-05-20T14:57:55.054Z,23.63
2019-05-20T15:00:25.038Z,24.60
2019-05-20T15:02:54.766Z,22.60
2019-05-20T15:05:26.573Z,20.53
2019-05-20T15:07:55.518Z,19.93
2019-05-20T15:10:27.763Z,21.70
2019-05-20T15:12:56.535Z,20.97
2019-05-20T15:15:25.401Z,20.57
2019-05-20T15:17:55.841Z,23.67
2019-05-20T15:20:26.518Z,20.73
2019-05-20T15:23:17.740Z,22.30
2019-05-20T15:25:46.638Z,22.57
2019-05-20T15:28:15.563Z,21.93
2019-05-20T15:30:44.433Z,22.23
2019-05-20T15:33:13.282Z,24.60
2019-05-20T15:35:42.731Z,24.33
2019-05-20T15:38:12.101Z,29.20
2019-05-20T15:40:40.913Z,30.37
2019-05-20T15:43:09.753Z,28.67
2019-05-20T15:45:38.613Z,28.93
2019-05-20T15:48:07.482Z,28.83
2019-05-20T15:50:36.406Z,28.17
2019-05-20T15:53:10.758Z,31.90
2019-05-20T15:55:35.825Z,26.73
2019-05-20T15:58:05.461Z,28.73
2019-05-20T16:00:34.250Z,31.93
2019-05-20T16:03:03.033Z,32.13
2019-05-20T16:05:31.890Z,31.87
2019-05-20T16:08:00.861Z,36.30
2019-05-20T16:10:29.685Z,33.37
2019-05-20T16:12:58.759Z,36.20
2019-05-20T16:15:27.542Z,38.63
2019-05-20T16:17:56.430Z,37.17
2019-05-20T16:20:26.836Z,35.17
2019-05-20T16:22:55.634Z,31.70
2019-05-20T16:25:25.989Z,28.83
2019-05-20T16:27:55.083Z,29.90
2019-05-20T16:30:24.243Z,32.07
2019-05-20T16:32:53.115Z,27.47
2019-05-20T16:35:22.469Z,27.57
2019-05-20T16:37:53.103Z,28.33
2019-05-20T16:40:22.241Z,29.30
2019-05-20T16:42:56.347Z,31.13
2019-05-20T16:45:25.225Z,31.10
2019-05-20T16:47:54.228Z,29.67
2019-05-20T16:50:23.123Z,28.17
2019-05-20T16:52:52.720Z,31.83
2019-05-20T16:55:21.706Z,33.10
2019-05-20T16:57:50.628Z,27.73
2019-05-20T17:00:30.995Z,34.00
2019-05-20T17:02:50.546Z,32.13
2019-05-20T17:05:19.498Z,30.83
2019-05-20T17:07:52.263Z,31.40
2019-05-20T17:10:21.123Z,30.17
2019-05-20T17:12:49.901Z,31.73
2019-05-20T17:15:18.813Z,32.00
2019-05-20T17:17:48.493Z,30.37
2019-05-20T17:20:17.722Z,27.10
2019-05-20T17:22:46.597Z,25.70
2019-05-20T17:25:17.782Z,26.83
2019-05-20T17:27:47.520Z,27.30
2019-05-20T17:30:16.735Z,24.77
2019-05-20T17:32:45.613Z,21.97
2019-05-20T17:35:14.729Z,27.93
2019-05-20T17:37:43.704Z,22.57
2019-05-20T17:40:13.412Z,26.23
2019-05-20T17:42:42.420Z,19.47
2019-05-20T17:45:12.243Z,21.10
2019-05-20T17:47:41.284Z,21.87
2019-05-20T17:50:10.917Z,18.90
2019-05-20T17:52:39.717Z,17.07
2019-05-20T17:55:08.917Z,17.03
2019-05-20T17:57:37.904Z,20.90
2019-05-20T18:00:11.354Z,19.10
2019-05-20T18:02:40.332Z,17.53
2019-05-20T18:05:10.308Z,18.07
2019-05-20T18:07:39.740Z,17.33
2019-05-20T18:10:09.856Z,18.90
2019-05-20T18:12:39.968Z,14.77
2019-05-20T18:15:10.176Z,16.47
2019-05-20T18:17:39.266Z,16.70
2019-05-20T18:20:08.249Z,18.63
2019-05-20T18:22:37.112Z,19.47
2019-05-20T18:25:05.955Z,20.20
2019-05-20T18:27:34.997Z,18.50
2019-05-20T18:30:08.095Z,20.77
2019-05-20T18:32:38.655Z,18.20
2019-05-20T18:35:08.841Z,17.27
2019-05-20T18:37:37.924Z,17.47
2019-05-20T18:40:14.391Z,19.00
2019-05-20T18:42:40.270Z,21.30
2019-05-20T18:45:10.487Z,22.93
2019-05-20T18:47:39.390Z,19.23
2019-05-20T18:50:08.794Z,20.40
2019-05-20T18:52:37.585Z,17.70
2019-05-20T18:55:06.550Z,18.07
2019-05-20T18:57:35.471Z,16.83
2019-05-20T19:00:05.776Z,17.73
2019-05-20T19:02:35.034Z,18.90
2019-05-20T19:05:04.409Z,16.57
2019-05-20T19:07:35.492Z,14.93
2019-05-20T19:10:06.418Z,17.10
2019-05-20T19:12:35.511Z,15.57
2019-05-20T19:15:04.950Z,15.60
2019-05-20T19:17:34.410Z,15.13
2019-05-20T19:20:03.283Z,16.17
2019-05-20T19:22:33.108Z,15.73
2019-05-20T19:25:04.654Z,16.87
2019-05-20T19:27:36.468Z,17.27
2019-05-20T19:30:10.746Z,14.67
2019-05-20T19:32:39.612Z,16.23
2019-05-20T19:35:12.956Z,16.57
2019-05-20T19:37:41.770Z,18.23
2019-05-20T19:40:10.782Z,17.57
2019-05-20T19:42:39.711Z,17.03
2019-05-20T19:45:11.211Z,16.97
2019-05-20T19:47:40.867Z,17.13
2019-05-20T19:50:13.617Z,18.73
2019-05-20T19:52:42.779Z,15.90
2019-05-20T19:55:12.398Z,16.53
2019-05-20T19:57:42.221Z,18.80
2019-05-20T20:00:11.849Z,21.20
2019-05-20T20:02:40.641Z,25.73
2019-05-20T20:05:10.391Z,21.93
2019-05-20T20:07:39.272Z,21.57
2019-05-20T20:10:08.638Z,22.80
2019-05-20T20:12:37.451Z,20.50
2019-05-20T20:15:07.266Z,20.73
2019-05-20T20:17:36.334Z,20.97
2019-05-20T20:20:05.980Z,18.77
2019-05-20T20:22:37.374Z,17.10
2019-05-20T20:25:06.490Z,18.13
2019-05-20T20:27:35.316Z,28.73
2019-05-20T20:30:04.389Z,17.13
2019-05-20T20:32:37.797Z,18.07
2019-05-20T20:35:04.109Z,15.13
2019-05-20T20:37:32.918Z,15.77
2019-05-20T20:40:01.708Z,16.33
2019-05-20T20:42:30.623Z,15.43
2019-05-20T20:44:59.420Z,16.07
2019-05-20T20:47:40.902Z,14.23
2019-05-20T20:49:58.931Z,13.03
2019-05-20T20:52:32.421Z,15.13
2019-05-20T20:55:00.723Z,12.57
2019-05-20T20:57:29.783Z,13.33
2019-05-20T20:59:58.570Z,14.27
2019-05-20T21:02:27.355Z,15.17
2019-05-20T21:04:56.146Z,11.97
2019-05-20T21:07:25.107Z,15.00
2019-05-20T21:09:53.895Z,13.03
2019-05-20T21:12:25.010Z,14.10
2019-05-20T21:14:53.790Z,16.33
2019-05-20T21:17:22.769Z,14.13
2019-05-20T21:19:51.623Z,16.20
2019-05-20T21:22:20.585Z,17.03
2019-05-20T21:24:49.519Z,17.53
2019-05-20T21:27:18.476Z,14.07
2019-05-20T21:29:47.313Z,17.67
2019-05-20T21:32:16.123Z,16.47
2019-05-20T21:34:44.910Z,17.30
2019-05-20T21:37:13.838Z,16.77
2019-05-20T21:39:42.643Z,14.40
2019-05-20T21:42:11.450Z,17.67
2019-05-20T21:44:40.233Z,19.83
2019-05-20T21:47:09.195Z,20.25
2019-05-20T21:49:38.111Z,19.80
2019-05-20T21:52:07.032Z,19.73
2019-05-20T21:54:35.840Z,18.03
2019-05-20T21:57:05.104Z,17.97
2019-05-20T21:59:33.919Z,18.07
2019-05-20T22:02:02.695Z,22.13
2019-05-20T22:04:31.554Z,16.50
2019-05-20T22:07:00.631Z,18.70
2019-05-20T22:09:29.521Z,17.27
2019-05-20T22:11:58.327Z,19.70
2019-05-20T22:14:27.225Z,17.87
2019-05-20T22:16:56.096Z,15.80
2019-05-20T22:19:24.911Z,19.50
2019-05-20T22:22:02.664Z,17.17
2019-05-20T22:24:31.586Z,24.37
2019-05-20T22:27:00.409Z,17.90
2019-05-20T22:29:29.249Z,17.50
2019-05-20T22:31:58.030Z,20.47
2019-05-20T22:34:26.805Z,19.20
2019-05-20T22:36:55.801Z,23.03
2019-05-20T22:39:24.989Z,18.07
2019-05-20T22:41:53.762Z,16.83
2019-05-20T22:44:22.563Z,19.33
2019-05-20T22:46:51.378Z,19.13
2019-05-20T22:49:20.167Z,21.10
2019-05-20T22:51:48.942Z,17.07
2019-05-20T22:54:17.835Z,18.83
2019-05-20T22:56:46.706Z,20.63
2019-05-20T22:59:15.594Z,19.73
2019-05-20T23:02:00.799Z,17.80
2019-05-20T23:04:17.759Z,19.87
2019-05-20T23:06:46.943Z,19.37
2019-05-20T23:09:15.875Z,17.60
2019-05-20T23:11:44.665Z,18.73
2019-05-20T23:14:13.469Z,19.53
2019-05-20T23:16:42.420Z,19.27
2019-05-20T23:19:11.248Z,14.20
2019-05-20T23:21:40.412Z,17.23
2019-05-20T23:24:09.211Z,15.50
2019-05-20T23:26:38.121Z,15.60
2019-05-20T23:29:07.012Z,14.80
2019-05-20T23:31:35.793Z,15.83
2019-05-20T23:34:12.600Z,16.47
2019-05-20T23:36:35.312Z,14.43
2019-05-20T23:39:06.749Z,14.37
2019-05-20T23:41:35.621Z,15.07
2019-05-20T23:44:05.433Z,30.00
2019-05-20T23:46:34.322Z,23.67
2019-05-20T23:49:03.237Z,16.47
2019-05-20T23:51:32.041Z,15.37
2019-05-20T23:54:01.935Z,17.13
2019-05-20T23:56:32.884Z,21.27
2019-05-20T23:59:03.370Z,15.43
